sensor_id;sensor_type;location;lat;lon;timestamp;temperature;humidity
5711;DHT22;61291;52.524;13.422;2023-12-20T00:01:21;8.30;99.90
5711;DHT22;61291;52.524;13.422;2023-12-20T00:03:47;8.30;99.90
5711;DHT22;61291;52.524;13.422;2023-12-20T00:06:12;8.30;99.90
5711;DHT22;61291;52.524;13.422;2023-12-20T00:08:38;8.30;99.90
5711;DHT22;61291;52.524;13.422;2023-12-20T00:11:03;8.30;99.90
5711;DHT22;61291;52.524;13.422;2023-12-20T00:13:29;8.30;99.90
5711;DHT22;61291;52.524;13.422;2023-12-20T00:15:54;8.20;99.90
5711;DHT22;61291;52.524;13.422;2023-12-20T00:18:20;8.20;99.90
5711;DHT22;61291;52.524;13.422;2023-12-20T00:20:45;8.20;99.90
5711;DHT22;61291;52.524;13.422;2023-12-20T00:23:11;8.20;99.90
5711;DHT22;61291;52.524;13.422;2023-12-20T00:25:36;8.20;99.90
5711;DHT22;61291;52.524;13.422;2023-12-20T00:28:02;8.20;99.90
5711;DHT22;61291;52.524;13.422;2023-12-20T00:30:28;8.20;99.90
5711;DHT22;61291;52.524;13.422;2023-12-20T00:32:55;8.20;99.90
5711;DHT22;61291;52.524;13.422;2023-12-20T00:35:21;8.20;99.90
5711;DHT22;61291;52.524;13.422;2023-12-20T00:37:46;8.20;99.90
5711;DHT22;61291;52.524;13.422;2023-12-20T00:40:11;8.20;99.90
5711;DHT22;61291;52.524;13.422;2023-12-20T00:42:37;8.20;99.90
5711;DHT22;61291;52.524;13.422;2023-12-20T00:45:03;8.20;99.90
5711;DHT22;61291;52.524;13.422;2023-12-20T00:47:30;8.20;99.90
5711;DHT22;61291;52.524;13.422;2023-12-20T00:49:56;8.30;99.90
5711;DHT22;61291;52.524;13.422;2023-12-20T00:52:22;8.20;99.90
5711;DHT22;61291;52.524;13.422;2023-12-20T00:54:48;8.20;99.90
5711;DHT22;61291;52.524;13.422;2023-12-20T00:57:13;8.30;99.90
5711;DHT22;61291;52.524;13.422;2023-12-20T00:59:39;8.30;99.90
5711;DHT22;61291;52.524;13.422;2023-12-20T01:02:04;8.30;99.90
5711;DHT22;61291;52.524;13.422;2023-12-20T01:04:30;8.30;99.90
5711;DHT22;61291;52.524;13.422;2023-12-20T01:06:55;8.30;99.90
5711;DHT22;61291;52.524;13.422;2023-12-20T01:09:21;8.30;99.90
5711;DHT22;61291;52.524;13.422;2023-12-20T01:11:49;8.30;99.90
5711;DHT22;61291;52.524;13.422;2023-12-20T01:14:14;8.30;99.90
5711;DHT22;61291;52.524;13.422;2023-12-20T01:16:40;8.30;99.90
5711;DHT22;61291;52.524;13.422;2023-12-20T01:19:05;8.20;99.90
5711;DHT22;61291;52.524;13.422;2023-12-20T01:21:31;8.20;99.90
5711;DHT22;61291;52.524;13.422;2023-12-20T01:23:56;8.30;99.90
5711;DHT22;61291;52.524;13.422;2023-12-20T01:26:21;8.30;99.90
5711;DHT22;61291;52.524;13.422;2023-12-20T01:28:47;8.30;99.90
5711;DHT22;61291;52.524;13.422;2023-12-20T01:31:13;8.30;99.90
5711;DHT22;61291;52.524;13.422;2023-12-20T01:33:38;8.30;99.90
5711;DHT22;61291;52.524;13.422;2023-12-20T01:36:04;8.30;99.90
5711;DHT22;61291;52.524;13.422;2023-12-20T01:38:29;8.30;99.90
5711;DHT22;61291;52.524;13.422;2023-12-20T01:40:55;8.30;99.90
5711;DHT22;61291;52.524;13.422;2023-12-20T01:43:20;8.30;99.90
5711;DHT22;61291;52.524;13.422;2023-12-20T01:45:47;8.30;99.90
5711;DHT22;61291;52.524;13.422;2023-12-20T01:48:12;8.20;99.90
5711;DHT22;61291;52.524;13.422;2023-12-20T01:50:40;8.30;99.90
5711;DHT22;61291;52.524;13.422;2023-12-20T01:53:07;8.30;99.90
5711;DHT22;61291;52.524;13.422;2023-12-20T01:55:35;8.30;99.90
5711;DHT22;61291;52.524;13.422;2023-12-20T01:58:01;8.30;99.90
5711;DHT22;61291;52.524;13.422;2023-12-20T02:00:30;8.30;99.90
5711;DHT22;61291;52.524;13.422;2023-12-20T02:02:55;8.20;99.90
5711;DHT22;61291;52.524;13.422;2023-12-20T02:05:21;8.30;99.90
5711;DHT22;61291;52.524;13.422;2023-12-20T02:07:47;8.30;99.90
5711;DHT22;61291;52.524;13.422;2023-12-20T02:10:13;8.30;99.90
5711;DHT22;61291;52.524;13.422;2023-12-20T02:12:40;8.20;99.90
5711;DHT22;61291;52.524;13.422;2023-12-20T02:15:06;8.20;99.90
5711;DHT22;61291;52.524;13.422;2023-12-20T02:17:32;8.10;99.90
5711;DHT22;61291;52.524;13.422;2023-12-20T02:19:57;8.10;99.90
5711;DHT22;61291;52.524;13.422;2023-12-20T02:22:23;8.00;99.90
5711;DHT22;61291;52.524;13.422;2023-12-20T02:24:48;8.00;99.90
5711;DHT22;61291;52.524;13.422;2023-12-20T02:27:15;7.90;99.90
5711;DHT22;61291;52.524;13.422;2023-12-20T02:29:41;7.90;99.90
5711;DHT22;61291;52.524;13.422;2023-12-20T02:32:07;7.80;99.90
5711;DHT22;61291;52.524;13.422;2023-12-20T02:34:32;7.80;99.90
5711;DHT22;61291;52.524;13.422;2023-12-20T02:36:57;7.80;99.90
5711;DHT22;61291;52.524;13.422;2023-12-20T02:39:23;7.80;99.90
5711;DHT22;61291;52.524;13.422;2023-12-20T02:41:48;7.80;99.90
5711;DHT22;61291;52.524;13.422;2023-12-20T02:44:14;7.80;99.90
5711;DHT22;61291;52.524;13.422;2023-12-20T02:46:39;7.80;99.90
5711;DHT22;61291;52.524;13.422;2023-12-20T02:49:06;7.80;99.90
5711;DHT22;61291;52.524;13.422;2023-12-20T02:51:31;7.90;99.90
5711;DHT22;61291;52.524;13.422;2023-12-20T02:53:57;7.90;99.90
5711;DHT22;61291;52.524;13.422;2023-12-20T02:56:22;8.00;99.90
5711;DHT22;61291;52.524;13.422;2023-12-20T02:58:48;8.00;99.90
5711;DHT22;61291;52.524;13.422;2023-12-20T03:01:13;8.00;99.90
5711;DHT22;61291;52.524;13.422;2023-12-20T03:03:39;8.00;99.90
5711;DHT22;61291;52.524;13.422;2023-12-20T03:06:05;8.00;99.90
5711;DHT22;61291;52.524;13.422;2023-12-20T03:08:30;7.90;99.90
5711;DHT22;61291;52.524;13.422;2023-12-20T03:10:56;8.00;99.90
5711;DHT22;61291;52.524;13.422;2023-12-20T03:13:21;8.00;99.90
5711;DHT22;61291;52.524;13.422;2023-12-20T03:15:46;8.00;99.90
5711;DHT22;61291;52.524;13.422;2023-12-20T03:18:12;8.00;99.90
5711;DHT22;61291;52.524;13.422;2023-12-20T03:20:37;7.90;99.90
5711;DHT22;61291;52.524;13.422;2023-12-20T03:23:03;7.90;99.90
5711;DHT22;61291;52.524;13.422;2023-12-20T03:25:29;7.90;99.90
5711;DHT22;61291;52.524;13.422;2023-12-20T03:27:54;7.90;99.90
5711;DHT22;61291;52.524;13.422;2023-12-20T03:30:20;7.90;99.90
5711;DHT22;61291;52.524;13.422;2023-12-20T03:32:46;7.80;99.90
5711;DHT22;61291;52.524;13.422;2023-12-20T03:35:11;7.80;99.90
5711;DHT22;61291;52.524;13.422;2023-12-20T03:37:37;7.80;99.90
5711;DHT22;61291;52.524;13.422;2023-12-20T03:40:03;7.80;99.90
5711;DHT22;61291;52.524;13.422;2023-12-20T03:42:28;7.80;99.90
5711;DHT22;61291;52.524;13.422;2023-12-20T03:44:54;7.80;99.90
5711;DHT22;61291;52.524;13.422;2023-12-20T03:47:19;7.70;99.90
5711;DHT22;61291;52.524;13.422;2023-12-20T03:49:45;7.70;99.90
5711;DHT22;61291;52.524;13.422;2023-12-20T03:52:10;7.70;99.90
5711;DHT22;61291;52.524;13.422;2023-12-20T03:54:36;7.70;99.90
5711;DHT22;61291;52.524;13.422;2023-12-20T03:57:01;7.60;99.90
5711;DHT22;61291;52.524;13.422;2023-12-20T03:59:27;7.60;99.90
5711;DHT22;61291;52.524;13.422;2023-12-20T04:01:52;7.60;99.90
5711;DHT22;61291;52.524;13.422;2023-12-20T04:04:18;7.50;99.90
5711;DHT22;61291;52.524;13.422;2023-12-20T04:06:44;7.60;99.90
5711;DHT22;61291;52.524;13.422;2023-12-20T04:09:09;7.50;99.90
5711;DHT22;61291;52.524;13.422;2023-12-20T04:11:36;7.50;99.90
5711;DHT22;61291;52.524;13.422;2023-12-20T04:14:01;7.50;99.90
5711;DHT22;61291;52.524;13.422;2023-12-20T04:16:26;7.40;99.90
5711;DHT22;61291;52.524;13.422;2023-12-20T04:18:52;7.30;99.90
5711;DHT22;61291;52.524;13.422;2023-12-20T04:21:17;7.20;99.90
5711;DHT22;61291;52.524;13.422;2023-12-20T04:23:43;7.20;99.90
5711;DHT22;61291;52.524;13.422;2023-12-20T04:26:09;7.00;99.90
5711;DHT22;61291;52.524;13.422;2023-12-20T04:28:34;6.90;99.90
5711;DHT22;61291;52.524;13.422;2023-12-20T04:31:00;6.80;99.90
5711;DHT22;61291;52.524;13.422;2023-12-20T04:33:25;6.80;99.90
5711;DHT22;61291;52.524;13.422;2023-12-20T04:35:51;6.70;99.90
5711;DHT22;61291;52.524;13.422;2023-12-20T04:38:16;6.60;99.90
5711;DHT22;61291;52.524;13.422;2023-12-20T04:40:42;6.50;99.90
5711;DHT22;61291;52.524;13.422;2023-12-20T04:43:08;6.40;99.90
5711;DHT22;61291;52.524;13.422;2023-12-20T04:45:34;6.20;99.90
5711;DHT22;61291;52.524;13.422;2023-12-20T04:48:00;6.10;99.90
5711;DHT22;61291;52.524;13.422;2023-12-20T04:50:26;6.00;99.90
5711;DHT22;61291;52.524;13.422;2023-12-20T04:52:51;5.90;99.90
5711;DHT22;61291;52.524;13.422;2023-12-20T04:55:17;5.90;99.90
5711;DHT22;61291;52.524;13.422;2023-12-20T04:57:42;5.90;99.90
5711;DHT22;61291;52.524;13.422;2023-12-20T05:00:08;6.00;99.90
5711;DHT22;61291;52.524;13.422;2023-12-20T05:02:35;5.90;99.90
5711;DHT22;61291;52.524;13.422;2023-12-20T05:05:01;6.00;99.90
5711;DHT22;61291;52.524;13.422;2023-12-20T05:07:26;6.20;99.90
5711;DHT22;61291;52.524;13.422;2023-12-20T05:09:52;6.30;99.90
5711;DHT22;61291;52.524;13.422;2023-12-20T05:12:17;6.40;99.90
5711;DHT22;61291;52.524;13.422;2023-12-20T05:14:43;6.40;99.90
5711;DHT22;61291;52.524;13.422;2023-12-20T05:17:08;6.60;99.90
5711;DHT22;61291;52.524;13.422;2023-12-20T05:19:33;6.70;99.90
5711;DHT22;61291;52.524;13.422;2023-12-20T05:22:02;6.60;99.90
5711;DHT22;61291;52.524;13.422;2023-12-20T05:24:28;6.60;99.90
5711;DHT22;61291;52.524;13.422;2023-12-20T05:26:53;6.40;99.90
5711;DHT22;61291;52.524;13.422;2023-12-20T05:29:19;6.40;99.90
5711;DHT22;61291;52.524;13.422;2023-12-20T05:31:44;6.30;99.90
5711;DHT22;61291;52.524;13.422;2023-12-20T05:34:10;6.10;99.90
5711;DHT22;61291;52.524;13.422;2023-12-20T05:36:36;6.10;99.90
5711;DHT22;61291;52.524;13.422;2023-12-20T05:39:02;6.00;99.90
5711;DHT22;61291;52.524;13.422;2023-12-20T05:41:29;5.90;99.90
5711;DHT22;61291;52.524;13.422;2023-12-20T05:43:55;5.80;99.90
5711;DHT22;61291;52.524;13.422;2023-12-20T05:46:20;5.70;99.90
5711;DHT22;61291;52.524;13.422;2023-12-20T05:48:47;5.60;99.90
5711;DHT22;61291;52.524;13.422;2023-12-20T05:51:12;5.50;99.90
5711;DHT22;61291;52.524;13.422;2023-12-20T05:53:38;5.50;99.90
5711;DHT22;61291;52.524;13.422;2023-12-20T05:56:04;5.40;99.90
5711;DHT22;61291;52.524;13.422;2023-12-20T05:58:29;5.40;99.90
5711;DHT22;61291;52.524;13.422;2023-12-20T06:00:55;5.30;99.90
5711;DHT22;61291;52.524;13.422;2023-12-20T06:03:20;5.30;99.90
5711;DHT22;61291;52.524;13.422;2023-12-20T06:05:46;5.20;99.90
5711;DHT22;61291;52.524;13.422;2023-12-20T06:08:11;5.20;99.90
5711;DHT22;61291;52.524;13.422;2023-12-20T06:10:37;5.30;99.90
5711;DHT22;61291;52.524;13.422;2023-12-20T06:13:02;5.40;99.90
5711;DHT22;61291;52.524;13.422;2023-12-20T06:15:29;5.50;99.90
5711;DHT22;61291;52.524;13.422;2023-12-20T06:17:55;5.60;99.90
5711;DHT22;61291;52.524;13.422;2023-12-20T06:20:20;5.60;99.90
5711;DHT22;61291;52.524;13.422;2023-12-20T06:22:46;5.50;99.90
5711;DHT22;61291;52.524;13.422;2023-12-20T06:25:12;5.50;99.90
5711;DHT22;61291;52.524;13.422;2023-12-20T06:27:37;5.50;99.90
5711;DHT22;61291;52.524;13.422;2023-12-20T06:30:03;5.60;99.90
5711;DHT22;61291;52.524;13.422;2023-12-20T06:32:29;5.60;99.90
5711;DHT22;61291;52.524;13.422;2023-12-20T06:34:54;5.60;99.90
5711;DHT22;61291;52.524;13.422;2023-12-20T06:37:20;5.70;99.90
5711;DHT22;61291;52.524;13.422;2023-12-20T06:39:45;5.80;99.90
5711;DHT22;61291;52.524;13.422;2023-12-20T06:42:12;5.90;99.90
5711;DHT22;61291;52.524;13.422;2023-12-20T06:44:37;5.90;99.90
5711;DHT22;61291;52.524;13.422;2023-12-20T06:47:04;6.00;99.90
5711;DHT22;61291;52.524;13.422;2023-12-20T06:49:29;5.90;99.90
5711;DHT22;61291;52.524;13.422;2023-12-20T06:51:55;5.90;99.90
5711;DHT22;61291;52.524;13.422;2023-12-20T06:54:20;5.90;99.90
5711;DHT22;61291;52.524;13.422;2023-12-20T06:56:46;5.80;99.90
5711;DHT22;61291;52.524;13.422;2023-12-20T06:59:11;5.90;99.90
5711;DHT22;61291;52.524;13.422;2023-12-20T07:01:37;5.90;99.90
5711;DHT22;61291;52.524;13.422;2023-12-20T07:04:03;6.00;99.90
5711;DHT22;61291;52.524;13.422;2023-12-20T07:06:28;6.00;99.90
5711;DHT22;61291;52.524;13.422;2023-12-20T07:08:54;6.00;99.90
5711;DHT22;61291;52.524;13.422;2023-12-20T07:11:19;6.10;99.90
5711;DHT22;61291;52.524;13.422;2023-12-20T07:13:45;6.00;99.90
5711;DHT22;61291;52.524;13.422;2023-12-20T07:16:10;6.20;99.90
5711;DHT22;61291;52.524;13.422;2023-12-20T07:18:36;6.30;99.90
5711;DHT22;61291;52.524;13.422;2023-12-20T07:21:01;6.30;99.90
5711;DHT22;61291;52.524;13.422;2023-12-20T07:23:27;6.40;99.90
5711;DHT22;61291;52.524;13.422;2023-12-20T07:25:52;6.40;99.90
5711;DHT22;61291;52.524;13.422;2023-12-20T07:28:18;6.40;99.90
5711;DHT22;61291;52.524;13.422;2023-12-20T07:30:43;6.40;99.90
5711;DHT22;61291;52.524;13.422;2023-12-20T07:33:09;6.40;99.90
5711;DHT22;61291;52.524;13.422;2023-12-20T07:35:34;6.40;99.90
5711;DHT22;61291;52.524;13.422;2023-12-20T07:38:00;6.50;99.90
5711;DHT22;61291;52.524;13.422;2023-12-20T07:40:26;6.50;99.90
5711;DHT22;61291;52.524;13.422;2023-12-20T07:42:51;6.50;99.90
5711;DHT22;61291;52.524;13.422;2023-12-20T07:45:16;6.50;99.90
5711;DHT22;61291;52.524;13.422;2023-12-20T07:47:42;6.60;99.90
5711;DHT22;61291;52.524;13.422;2023-12-20T07:50:08;6.60;99.90
5711;DHT22;61291;52.524;13.422;2023-12-20T07:52:33;6.70;99.90
5711;DHT22;61291;52.524;13.422;2023-12-20T07:54:58;6.70;99.90
5711;DHT22;61291;52.524;13.422;2023-12-20T07:57:24;6.70;99.90
5711;DHT22;61291;52.524;13.422;2023-12-20T07:59:49;6.70;99.90
5711;DHT22;61291;52.524;13.422;2023-12-20T08:02:16;6.80;99.90
5711;DHT22;61291;52.524;13.422;2023-12-20T08:04:41;6.90;99.90
5711;DHT22;61291;52.524;13.422;2023-12-20T08:07:07;7.00;99.90
5711;DHT22;61291;52.524;13.422;2023-12-20T08:09:32;7.00;99.90
5711;DHT22;61291;52.524;13.422;2023-12-20T08:11:59;7.20;99.90
5711;DHT22;61291;52.524;13.422;2023-12-20T08:14:25;7.20;99.90
5711;DHT22;61291;52.524;13.422;2023-12-20T08:16:50;7.30;99.90
5711;DHT22;61291;52.524;13.422;2023-12-20T08:19:16;7.40;99.90
5711;DHT22;61291;52.524;13.422;2023-12-20T08:21:42;7.40;99.90
5711;DHT22;61291;52.524;13.422;2023-12-20T08:24:08;7.40;99.90
5711;DHT22;61291;52.524;13.422;2023-12-20T08:26:33;7.30;99.90
5711;DHT22;61291;52.524;13.422;2023-12-20T08:28:59;7.30;99.90
5711;DHT22;61291;52.524;13.422;2023-12-20T08:31:24;7.20;99.90
5711;DHT22;61291;52.524;13.422;2023-12-20T08:33:51;7.30;99.90
5711;DHT22;61291;52.524;13.422;2023-12-20T08:36:19;7.30;99.90
5711;DHT22;61291;52.524;13.422;2023-12-20T08:38:46;7.40;99.90
5711;DHT22;61291;52.524;13.422;2023-12-20T08:41:12;7.40;99.90
5711;DHT22;61291;52.524;13.422;2023-12-20T08:43:37;7.50;99.90
5711;DHT22;61291;52.524;13.422;2023-12-20T08:46:05;7.70;99.90
5711;DHT22;61291;52.524;13.422;2023-12-20T08:48:31;7.90;99.90
5711;DHT22;61291;52.524;13.422;2023-12-20T08:50:56;8.10;99.90
5711;DHT22;61291;52.524;13.422;2023-12-20T08:53:22;8.40;99.90
5711;DHT22;61291;52.524;13.422;2023-12-20T08:55:47;8.60;99.90
5711;DHT22;61291;52.524;13.422;2023-12-20T08:58:13;8.60;99.90
5711;DHT22;61291;52.524;13.422;2023-12-20T09:00:39;8.50;99.90
5711;DHT22;61291;52.524;13.422;2023-12-20T09:03:05;8.50;99.90
5711;DHT22;61291;52.524;13.422;2023-12-20T09:05:30;8.50;99.90
5711;DHT22;61291;52.524;13.422;2023-12-20T09:07:56;8.50;99.90
5711;DHT22;61291;52.524;13.422;2023-12-20T09:10:21;8.60;99.90
5711;DHT22;61291;52.524;13.422;2023-12-20T09:12:50;9.00;99.90
5711;DHT22;61291;52.524;13.422;2023-12-20T09:15:16;9.40;99.90
5711;DHT22;61291;52.524;13.422;2023-12-20T09:17:42;9.50;99.90
5711;DHT22;61291;52.524;13.422;2023-12-20T09:20:09;9.50;99.90
5711;DHT22;61291;52.524;13.422;2023-12-20T09:22:34;9.50;99.90
5711;DHT22;61291;52.524;13.422;2023-12-20T09:25:00;9.50;99.90
5711;DHT22;61291;52.524;13.422;2023-12-20T09:27:27;9.50;99.90
5711;DHT22;61291;52.524;13.422;2023-12-20T09:29:52;9.40;99.90
5711;DHT22;61291;52.524;13.422;2023-12-20T09:32:18;9.50;99.90
5711;DHT22;61291;52.524;13.422;2023-12-20T09:34:45;9.40;99.90
5711;DHT22;61291;52.524;13.422;2023-12-20T09:37:11;9.30;99.90
5711;DHT22;61291;52.524;13.422;2023-12-20T09:39:36;9.10;99.90
5711;DHT22;61291;52.524;13.422;2023-12-20T09:42:03;9.10;99.90
5711;DHT22;61291;52.524;13.422;2023-12-20T09:44:30;8.90;99.90
5711;DHT22;61291;52.524;13.422;2023-12-20T09:46:56;8.90;99.90
5711;DHT22;61291;52.524;13.422;2023-12-20T09:49:22;8.90;99.90
5711;DHT22;61291;52.524;13.422;2023-12-20T09:51:50;9.00;99.90
5711;DHT22;61291;52.524;13.422;2023-12-20T09:54:17;8.90;99.90
5711;DHT22;61291;52.524;13.422;2023-12-20T09:56:44;8.90;99.90
5711;DHT22;61291;52.524;13.422;2023-12-20T09:59:09;8.90;99.90
5711;DHT22;61291;52.524;13.422;2023-12-20T10:01:35;8.90;99.90
5711;DHT22;61291;52.524;13.422;2023-12-20T10:04:05;8.90;99.90
5711;DHT22;61291;52.524;13.422;2023-12-20T10:06:40;8.90;99.90
5711;DHT22;61291;52.524;13.422;2023-12-20T10:09:06;8.90;99.90
5711;DHT22;61291;52.524;13.422;2023-12-20T10:11:31;8.90;99.90
5711;DHT22;61291;52.524;13.422;2023-12-20T10:14:00;8.90;99.90
5711;DHT22;61291;52.524;13.422;2023-12-20T10:16:29;8.80;99.90
5711;DHT22;61291;52.524;13.422;2023-12-20T10:18:56;8.80;99.90
5711;DHT22;61291;52.524;13.422;2023-12-20T10:21:22;8.80;99.90
5711;DHT22;61291;52.524;13.422;2023-12-20T10:23:48;8.80;99.90
5711;DHT22;61291;52.524;13.422;2023-12-20T10:26:19;8.80;99.90
5711;DHT22;61291;52.524;13.422;2023-12-20T10:28:46;8.80;99.90
5711;DHT22;61291;52.524;13.422;2023-12-20T10:31:35;8.80;99.90
5711;DHT22;61291;52.524;13.422;2023-12-20T10:34:02;8.80;99.90
5711;DHT22;61291;52.524;13.422;2023-12-20T10:36:30;8.80;99.90
5711;DHT22;61291;52.524;13.422;2023-12-20T10:38:57;8.80;99.90
5711;DHT22;61291;52.524;13.422;2023-12-20T10:41:27;8.80;99.90
5711;DHT22;61291;52.524;13.422;2023-12-20T10:44:03;8.90;99.90
5711;DHT22;61291;52.524;13.422;2023-12-20T10:46:30;9.10;99.90
5711;DHT22;61291;52.524;13.422;2023-12-20T10:48:57;9.30;99.90
5711;DHT22;61291;52.524;13.422;2023-12-20T10:51:24;9.40;99.90
5711;DHT22;61291;52.524;13.422;2023-12-20T10:53:53;9.50;99.90
5711;DHT22;61291;52.524;13.422;2023-12-20T10:56:19;9.40;99.90
5711;DHT22;61291;52.524;13.422;2023-12-20T10:58:46;9.40;99.90
5711;DHT22;61291;52.524;13.422;2023-12-20T11:01:14;9.30;99.90
5711;DHT22;61291;52.524;13.422;2023-12-20T11:06:25;9.30;99.90
5711;DHT22;61291;52.524;13.422;2023-12-20T11:09:14;9.30;99.90
5711;DHT22;61291;52.524;13.422;2023-12-20T11:12:02;9.20;99.90
5711;DHT22;61291;52.524;13.422;2023-12-20T11:14:51;9.30;99.90
5711;DHT22;61291;52.524;13.422;2023-12-20T11:17:17;9.20;99.90
5711;DHT22;61291;52.524;13.422;2023-12-20T11:20:03;9.30;99.90
5711;DHT22;61291;52.524;13.422;2023-12-20T11:22:33;9.30;99.90
5711;DHT22;61291;52.524;13.422;2023-12-20T11:25:06;9.30;99.90
5711;DHT22;61291;52.524;13.422;2023-12-20T11:27:36;9.30;99.90
5711;DHT22;61291;52.524;13.422;2023-12-20T11:30:04;9.40;99.90
5711;DHT22;61291;52.524;13.422;2023-12-20T11:32:34;9.40;99.90
5711;DHT22;61291;52.524;13.422;2023-12-20T11:35:16;9.30;99.90
5711;DHT22;61291;52.524;13.422;2023-12-20T11:37:42;9.20;99.90
5711;DHT22;61291;52.524;13.422;2023-12-20T11:40:12;9.10;99.90
5711;DHT22;61291;52.524;13.422;2023-12-20T11:42:41;9.10;99.90
5711;DHT22;61291;52.524;13.422;2023-12-20T11:45:24;9.00;99.90
5711;DHT22;61291;52.524;13.422;2023-12-20T11:47:51;9.10;99.90
5711;DHT22;61291;52.524;13.422;2023-12-20T11:50:19;9.10;99.90
5711;DHT22;61291;52.524;13.422;2023-12-20T11:52:45;9.10;99.90
5711;DHT22;61291;52.524;13.422;2023-12-20T11:55:10;9.10;99.90
5711;DHT22;61291;52.524;13.422;2023-12-20T11:57:36;9.20;99.90
5711;DHT22;61291;52.524;13.422;2023-12-20T12:00:03;9.20;99.90
5711;DHT22;61291;52.524;13.422;2023-12-20T12:02:28;9.10;99.90
5711;DHT22;61291;52.524;13.422;2023-12-20T12:04:54;9.20;99.90
5711;DHT22;61291;52.524;13.422;2023-12-20T12:07:21;9.40;99.90
5711;DHT22;61291;52.524;13.422;2023-12-20T12:09:46;9.60;99.90
5711;DHT22;61291;52.524;13.422;2023-12-20T12:12:12;9.90;99.90
5711;DHT22;61291;52.524;13.422;2023-12-20T12:14:39;9.90;99.90
5711;DHT22;61291;52.524;13.422;2023-12-20T12:17:13;9.80;99.90
5711;DHT22;61291;52.524;13.422;2023-12-20T12:19:39;9.70;99.90
5711;DHT22;61291;52.524;13.422;2023-12-20T12:22:14;9.60;99.90
5711;DHT22;61291;52.524;13.422;2023-12-20T12:24:43;9.60;99.90
5711;DHT22;61291;52.524;13.422;2023-12-20T12:27:09;9.70;99.90
5711;DHT22;61291;52.524;13.422;2023-12-20T12:29:36;9.60;99.90
5711;DHT22;61291;52.524;13.422;2023-12-20T12:32:05;9.50;99.90
5711;DHT22;61291;52.524;13.422;2023-12-20T12:34:32;9.30;99.90
5711;DHT22;61291;52.524;13.422;2023-12-20T12:36:58;9.10;99.90
5711;DHT22;61291;52.524;13.422;2023-12-20T12:39:24;8.90;99.90
5711;DHT22;61291;52.524;13.422;2023-12-20T12:41:53;8.70;99.90
5711;DHT22;61291;52.524;13.422;2023-12-20T12:44:19;8.60;99.90
5711;DHT22;61291;52.524;13.422;2023-12-20T12:46:48;8.50;99.90
5711;DHT22;61291;52.524;13.422;2023-12-20T12:49:16;8.30;99.90
5711;DHT22;61291;52.524;13.422;2023-12-20T12:51:42;8.30;99.90
5711;DHT22;61291;52.524;13.422;2023-12-20T12:54:08;8.30;99.90
5711;DHT22;61291;52.524;13.422;2023-12-20T12:56:35;8.30;99.90
5711;DHT22;61291;52.524;13.422;2023-12-20T12:59:01;8.20;99.90
5711;DHT22;61291;52.524;13.422;2023-12-20T13:01:26;8.10;99.90
5711;DHT22;61291;52.524;13.422;2023-12-20T13:03:51;8.10;99.90
5711;DHT22;61291;52.524;13.422;2023-12-20T13:06:17;8.00;99.90
5711;DHT22;61291;52.524;13.422;2023-12-20T13:08:42;8.00;99.90
5711;DHT22;61291;52.524;13.422;2023-12-20T13:11:09;8.00;99.90
5711;DHT22;61291;52.524;13.422;2023-12-20T13:13:35;8.00;99.90
5711;DHT22;61291;52.524;13.422;2023-12-20T13:16:00;8.00;99.90
5711;DHT22;61291;52.524;13.422;2023-12-20T13:18:26;8.00;99.90
5711;DHT22;61291;52.524;13.422;2023-12-20T13:20:51;8.00;99.90
5711;DHT22;61291;52.524;13.422;2023-12-20T13:23:17;7.80;99.90
5711;DHT22;61291;52.524;13.422;2023-12-20T13:25:44;7.60;99.90
5711;DHT22;61291;52.524;13.422;2023-12-20T13:28:12;7.60;99.90
5711;DHT22;61291;52.524;13.422;2023-12-20T13:30:39;7.30;99.90
5711;DHT22;61291;52.524;13.422;2023-12-20T13:33:05;7.20;99.90
5711;DHT22;61291;52.524;13.422;2023-12-20T13:35:32;7.00;99.90
5711;DHT22;61291;52.524;13.422;2023-12-20T13:37:58;7.00;99.90
5711;DHT22;61291;52.524;13.422;2023-12-20T13:40:23;6.90;99.90
5711;DHT22;61291;52.524;13.422;2023-12-20T13:42:49;6.90;99.90
5711;DHT22;61291;52.524;13.422;2023-12-20T13:45:14;6.90;99.90
5711;DHT22;61291;52.524;13.422;2023-12-20T13:47:40;6.90;99.90
5711;DHT22;61291;52.524;13.422;2023-12-20T13:50:06;6.90;99.90
5711;DHT22;61291;52.524;13.422;2023-12-20T13:52:31;6.80;99.90
5711;DHT22;61291;52.524;13.422;2023-12-20T13:54:57;6.60;99.90
5711;DHT22;61291;52.524;13.422;2023-12-20T13:57:22;6.40;99.90
5711;DHT22;61291;52.524;13.422;2023-12-20T13:59:48;6.20;99.90
5711;DHT22;61291;52.524;13.422;2023-12-20T14:02:13;6.00;99.90
5711;DHT22;61291;52.524;13.422;2023-12-20T14:04:39;5.90;99.90
5711;DHT22;61291;52.524;13.422;2023-12-20T14:07:05;5.80;99.90
5711;DHT22;61291;52.524;13.422;2023-12-20T14:09:30;5.70;99.90
5711;DHT22;61291;52.524;13.422;2023-12-20T14:11:56;5.60;99.90
5711;DHT22;61291;52.524;13.422;2023-12-20T14:14:21;5.60;99.90
5711;DHT22;61291;52.524;13.422;2023-12-20T14:16:47;5.60;99.90
5711;DHT22;61291;52.524;13.422;2023-12-20T14:19:12;5.50;99.90
5711;DHT22;61291;52.524;13.422;2023-12-20T14:21:38;5.60;99.90
5711;DHT22;61291;52.524;13.422;2023-12-20T14:24:03;5.60;99.90
5711;DHT22;61291;52.524;13.422;2023-12-20T14:26:30;5.60;99.90
5711;DHT22;61291;52.524;13.422;2023-12-20T14:28:55;5.70;99.90
5711;DHT22;61291;52.524;13.422;2023-12-20T14:31:21;5.90;99.90
5711;DHT22;61291;52.524;13.422;2023-12-20T14:33:48;6.10;99.90
5711;DHT22;61291;52.524;13.422;2023-12-20T14:36:16;6.20;99.90
5711;DHT22;61291;52.524;13.422;2023-12-20T14:38:43;6.30;99.90
5711;DHT22;61291;52.524;13.422;2023-12-20T14:41:09;6.30;99.90
5711;DHT22;61291;52.524;13.422;2023-12-20T14:43:35;6.30;99.90
5711;DHT22;61291;52.524;13.422;2023-12-20T14:46:00;6.30;99.90
5711;DHT22;61291;52.524;13.422;2023-12-20T14:48:26;6.30;99.90
5711;DHT22;61291;52.524;13.422;2023-12-20T14:50:53;6.30;99.90
5711;DHT22;61291;52.524;13.422;2023-12-20T14:53:19;6.20;99.90
5711;DHT22;61291;52.524;13.422;2023-12-20T14:55:44;6.20;99.90
5711;DHT22;61291;52.524;13.422;2023-12-20T14:58:10;6.20;99.90
5711;DHT22;61291;52.524;13.422;2023-12-20T15:00:35;6.30;99.90
5711;DHT22;61291;52.524;13.422;2023-12-20T15:03:01;6.30;99.90
5711;DHT22;61291;52.524;13.422;2023-12-20T15:05:27;6.20;99.90
5711;DHT22;61291;52.524;13.422;2023-12-20T15:07:52;6.20;99.90
5711;DHT22;61291;52.524;13.422;2023-12-20T15:10:18;6.30;99.90
5711;DHT22;61291;52.524;13.422;2023-12-20T15:12:44;6.30;99.90
5711;DHT22;61291;52.524;13.422;2023-12-20T15:15:11;6.40;99.90
5711;DHT22;61291;52.524;13.422;2023-12-20T15:17:36;6.40;99.90
5711;DHT22;61291;52.524;13.422;2023-12-20T15:20:03;6.40;99.90
5711;DHT22;61291;52.524;13.422;2023-12-20T15:22:30;6.40;99.90
5711;DHT22;61291;52.524;13.422;2023-12-20T15:24:55;6.50;99.90
5711;DHT22;61291;52.524;13.422;2023-12-20T15:27:21;6.60;99.90
5711;DHT22;61291;52.524;13.422;2023-12-20T15:29:46;6.60;99.90
5711;DHT22;61291;52.524;13.422;2023-12-20T15:32:12;6.50;99.90
5711;DHT22;61291;52.524;13.422;2023-12-20T15:34:37;6.40;99.90
5711;DHT22;61291;52.524;13.422;2023-12-20T15:37:03;6.20;99.90
5711;DHT22;61291;52.524;13.422;2023-12-20T15:39:29;6.00;99.90
5711;DHT22;61291;52.524;13.422;2023-12-20T15:41:54;5.80;99.90